CheckWX is a tool to help pilots better visualize weather data.  It is not intended as a substitute for an official pre-flight weather briefing.

03:22:57 UTC

KMRB TAF
Eastern Wv Regional / Shepherd Field Airport
Martinsburg, West Virginia, USA
KMRB 040539Z 0406/0506 VRB03KT P6SM SKC FM041400 36004KT P6SM FEW050 FM042200 04005KT P6SM FEW070 FM050000 00000KT P6SM FEW070

Jul-4@
06:00 UTC

Jul-4 @ 06:00 UTC

Jul-4@
14:00 UTC

Jul-4 @ 14:00 UTC

TAF KMRB 040539Z 0406/0506 VRB03KT P6SM SKC

Expired

Wind
  • Variable at 3 KTS
Cloud Levels
  • Clear skies

Jul-4@
14:00 UTC

Jul-4 @ 14:00 UTC

Jul-4@
22:00 UTC

Jul-4 @ 22:00 UTC

FM041400 36004KT P6SM FEW050

Expired

Wind
  • 360° at 4 KTS
Cloud Levels
  • Few at 5,000' AGL

Jul-4@
22:00 UTC

Jul-4 @ 22:00 UTC

Jul-5@
00:00 UTC

Jul-5 @ 00:00 UTC

FM042200 04005KT P6SM FEW070

Expired

Wind
  • 040° at 5 KTS
Cloud Levels
  • Few at 7,000' AGL

Jul-5@
00:00 UTC

Jul-5 @ 00:00 UTC

Jul-5@
06:00 UTC

Jul-5 @ 06:00 UTC

FM050000 00000KT P6SM FEW070

From

From Standard forecast or significant change

Cloud Levels
  • Few at 7,000' AGL